Alhani — 5AXF — position and weather

sailwx.info

Track history (hours):
 
Tides and Currents Weather Stations Pressure Air Temp Water Temp Dewpoint Dewpoint Depression Visibility Wind Speed Wind Dir Waves Ship Positions

Alhani

Last reported at 2017-Nov-11 03:14 UTC. Time now 2017-Nov-18 06:42 UTC.
Position N 44°32' E 037°42'.

Length 249 m; draft 11.9 m.

Type: Ship (hazmat cat C). MMSI: 642122020.

Date/timePositionNaut miles runAvg speedWind from/ knotsBaromVisibWave heightAir tempDewpointWater temp
2017-Nov-11 03:14N 44°32' E 037°42'311.9
2017-Nov-11 03:00N 44°34' E 037°45'510.5
2017-Nov-11 02:30N 44°38' E 037°50'3 6.8
2017-Nov-11 02:00N 44°42' E 037°50'1 1.2
2017-Nov-11 01:30N 44°42' E 037°50'0 0.0
2017-Nov-11 00:58N 44°42' E 037°50'0 0.0
2017-Nov-11 00:28N 44°42' E 037°50'0 0.0
2017-Nov-10 23:58N 44°42' E 037°50'0 0.0
2017-Nov-10 23:28N 44°42' E 037°50'0 0.0
2017-Nov-10 22:58N 44°42' E 037°50'0 0.0
2017-Nov-10 22:28N 44°42' E 037°50'0 0.0
2017-Nov-10 21:58N 44°42' E 037°50'0 0.0
2017-Nov-10 21:28N 44°42' E 037°50'0 0.0
2017-Nov-10 20:58N 44°42' E 037°50'0 0.0
2017-Nov-10 20:28N 44°42' E 037°50'0 0.0
2017-Nov-10 19:58N 44°42' E 037°50'0 0.0
2017-Nov-10 19:28N 44°42' E 037°50'0 0.0
2017-Nov-10 18:58N 44°42' E 037°50'0 0.0
2017-Nov-10 18:28N 44°42' E 037°50'0 0.0
2017-Nov-10 17:58N 44°42' E 037°50'0 0.0
2017-Nov-10 17:28N 44°42' E 037°50'0 0.0
2017-Nov-10 16:58N 44°42' E 037°50'0 0.0
2017-Nov-10 16:28N 44°42' E 037°50'0 0.0
2017-Nov-10 15:58N 44°42' E 037°50'0 0.0
2017-Nov-10 15:28N 44°42' E 037°50'0 0.0
2017-Nov-10 14:58N 44°42' E 037°50'0 0.0
2017-Nov-10 14:28N 44°42' E 037°50'0 0.0
2017-Nov-10 13:58N 44°42' E 037°50'0 0.0
2017-Nov-10 13:28N 44°42' E 037°50'0 0.0
2017-Nov-10 12:58N 44°42' E 037°50'0 0.0
2017-Nov-10 12:28N 44°42' E 037°50'0 0.0
2017-Nov-10 11:58N 44°42' E 037°50'0 0.0
2017-Nov-10 11:28N 44°42' E 037°50'0 0.0
2017-Nov-10 10:58N 44°42' E 037°50'0 0.0
2017-Nov-10 10:25N 44°42' E 037°50'0 0.0
2017-Nov-10 09:58N 44°42' E 037°50'0 0.0
2017-Nov-10 09:28N 44°42' E 037°50'0 0.0
2017-Nov-10 08:58N 44°42' E 037°50'0 0.0
2017-Nov-10 08:28N 44°42' E 037°50'0 0.0
2017-Nov-10 07:58N 44°42' E 037°50'0 0.0
2017-Nov-10 07:28N 44°42' E 037°50'0 0.0
2017-Nov-10 06:58N 44°42' E 037°50'0 0.0
2017-Nov-10 06:28N 44°42' E 037°50'0 0.0
2017-Nov-10 05:58N 44°42' E 037°50'0 0.0
2017-Nov-10 05:28N 44°42' E 037°50'0 0.0
2017-Nov-10 04:58N 44°42' E 037°50'0 0.0
2017-Nov-10 04:28N 44°42' E 037°50'0 0.0
2017-Nov-10 03:58N 44°42' E 037°50'0 0.0
2017-Nov-10 03:28N 44°42' E 037°50'0 0.0
2017-Nov-10 02:58N 44°42' E 037°50'0 0.0
2017-Nov-10 02:28N 44°42' E 037°50'0 0.0
2017-Nov-10 01:58N 44°42' E 037°50'0 0.0
2017-Nov-10 01:28N 44°42' E 037°50'0 0.0
2017-Nov-10 00:59N 44°42' E 037°50'1 1.3
2017-Nov-10 00:30N 44°42' E 037°50'3 6.7
2017-Nov-10 00:00N 44°38' E 037°52'4 8.2
2017-Nov-09 23:31N 44°34' E 037°51'610.8
2017-Nov-09 23:00N 44°32' E 037°44'711.6
2017-Nov-09 22:24N 44°29' E 037°35'4 0.1
2017-Nov-08 15:07N 44°27' E 037°30'0 0.4
2017-Nov-08 14:50N 44°27' E 037°30'0 0.3
2017-Nov-08 14:05N 44°26' E 037°30'0 0.3
2017-Nov-08 13:57N 44°26' E 037°30'0 0.2
2017-Nov-08 13:29N 44°26' E 037°30'0 0.2
2017-Nov-08 13:00N 44°26' E 037°30'0 0.3
2017-Nov-08 12:29N 44°26' E 037°30'0 0.4
2017-Nov-08 11:59N 44°26' E 037°30'0 0.4
2017-Nov-08 11:29N 44°26' E 037°30'0 0.4
2017-Nov-08 11:00N 44°26' E 037°30'0 0.4
2017-Nov-08 10:28N 44°25' E 037°31'0 0.5
2017-Nov-08 09:58N 44°25' E 037°31'0 0.6
2017-Nov-08 09:21N 44°25' E 037°31'7 2.5
2017-Nov-08 06:23N 44°26' E 037°41'0 0.1
2017-Nov-08 04:30N 44°26' E 037°41'  
Track history (hours):
 
Tides and Currents Weather Stations Pressure Air Temp Water Temp Dewpoint Dewpoint Depression Visibility Wind Speed Wind Dir Waves Ship Positions

Alhani

Last reported at 2017-Nov-11 03:14 UTC. Time now 2017-Nov-18 06:42 UTC.
Position N 44°32' E 037°42'.

Length 249 m; draft 11.9 m.

Type: Ship (hazmat cat C). MMSI: 642122020.

Date/timePositionNaut miles runAvg speedWind from/ knotsBaromVisibWave heightAir tempDewpointWater temp
2017-Nov-11 03:14N 44°32' E 037°42'311.9
2017-Nov-11 03:00N 44°34' E 037°45'510.5
2017-Nov-11 02:30N 44°38' E 037°50'3 6.8
2017-Nov-11 02:00N 44°42' E 037°50'1 1.2
2017-Nov-11 01:30N 44°42' E 037°50'0 0.0
2017-Nov-11 00:58N 44°42' E 037°50'0 0.0
2017-Nov-11 00:28N 44°42' E 037°50'0 0.0
2017-Nov-10 23:58N 44°42' E 037°50'0 0.0
2017-Nov-10 23:28N 44°42' E 037°50'0 0.0
2017-Nov-10 22:58N 44°42' E 037°50'0 0.0
2017-Nov-10 22:28N 44°42' E 037°50'0 0.0
2017-Nov-10 21:58N 44°42' E 037°50'0 0.0
2017-Nov-10 21:28N 44°42' E 037°50'0 0.0
2017-Nov-10 20:58N 44°42' E 037°50'0 0.0
2017-Nov-10 20:28N 44°42' E 037°50'0 0.0
2017-Nov-10 19:58N 44°42' E 037°50'0 0.0
2017-Nov-10 19:28N 44°42' E 037°50'0 0.0
2017-Nov-10 18:58N 44°42' E 037°50'0 0.0
2017-Nov-10 18:28N 44°42' E 037°50'0 0.0
2017-Nov-10 17:58N 44°42' E 037°50'0 0.0
2017-Nov-10 17:28N 44°42' E 037°50'0 0.0
2017-Nov-10 16:58N 44°42' E 037°50'0 0.0
2017-Nov-10 16:28N 44°42' E 037°50'0 0.0
2017-Nov-10 15:58N 44°42' E 037°50'0 0.0
2017-Nov-10 15:28N 44°42' E 037°50'0 0.0
2017-Nov-10 14:58N 44°42' E 037°50'0 0.0
2017-Nov-10 14:28N 44°42' E 037°50'0 0.0
2017-Nov-10 13:58N 44°42' E 037°50'0 0.0
2017-Nov-10 13:28N 44°42' E 037°50'0 0.0
2017-Nov-10 12:58N 44°42' E 037°50'0 0.0
2017-Nov-10 12:28N 44°42' E 037°50'0 0.0
2017-Nov-10 11:58N 44°42' E 037°50'0 0.0
2017-Nov-10 11:28N 44°42' E 037°50'0 0.0
2017-Nov-10 10:58N 44°42' E 037°50'0 0.0
2017-Nov-10 10:25N 44°42' E 037°50'0 0.0
2017-Nov-10 09:58N 44°42' E 037°50'0 0.0
2017-Nov-10 09:28N 44°42' E 037°50'0 0.0
2017-Nov-10 08:58N 44°42' E 037°50'0 0.0
2017-Nov-10 08:28N 44°42' E 037°50'0 0.0
2017-Nov-10 07:58N 44°42' E 037°50'0 0.0
2017-Nov-10 07:28N 44°42' E 037°50'0 0.0
2017-Nov-10 06:58N 44°42' E 037°50'0 0.0
2017-Nov-10 06:28N 44°42' E 037°50'0 0.0
2017-Nov-10 05:58N 44°42' E 037°50'0 0.0
2017-Nov-10 05:28N 44°42' E 037°50'0 0.0
2017-Nov-10 04:58N 44°42' E 037°50'0 0.0
2017-Nov-10 04:28N 44°42' E 037°50'0 0.0
2017-Nov-10 03:58N 44°42' E 037°50'0 0.0
2017-Nov-10 03:28N 44°42' E 037°50'0 0.0
2017-Nov-10 02:58N 44°42' E 037°50'0 0.0
2017-Nov-10 02:28N 44°42' E 037°50'0 0.0
2017-Nov-10 01:58N 44°42' E 037°50'0 0.0
2017-Nov-10 01:28N 44°42' E 037°50'0 0.0
2017-Nov-10 00:59N 44°42' E 037°50'1 1.3
2017-Nov-10 00:30N 44°42' E 037°50'3 6.7
2017-Nov-10 00:00N 44°38' E 037°52'4 8.2
2017-Nov-09 23:31N 44°34' E 037°51'610.8
2017-Nov-09 23:00N 44°32' E 037°44'711.6
2017-Nov-09 22:24N 44°29' E 037°35'4 0.1
2017-Nov-08 15:07N 44°27' E 037°30'0 0.4
2017-Nov-08 14:50N 44°27' E 037°30'0 0.3
2017-Nov-08 14:05N 44°26' E 037°30'0 0.3
2017-Nov-08 13:57N 44°26' E 037°30'0 0.2
2017-Nov-08 13:29N 44°26' E 037°30'0 0.2
2017-Nov-08 13:00N 44°26' E 037°30'0 0.3
2017-Nov-08 12:29N 44°26' E 037°30'0 0.4
2017-Nov-08 11:59N 44°26' E 037°30'0 0.4
2017-Nov-08 11:29N 44°26' E 037°30'0 0.4
2017-Nov-08 11:00N 44°26' E 037°30'0 0.4
2017-Nov-08 10:28N 44°25' E 037°31'0 0.5
2017-Nov-08 09:58N 44°25' E 037°31'0 0.6
2017-Nov-08 09:21N 44°25' E 037°31'7 2.5
2017-Nov-08 06:23N 44°26' E 037°41'0 0.1
2017-Nov-08 04:30N 44°26' E 037°41'  

Dump ship's entire track history